Time;durP1;ratioP1;P1;durP2;ratioP2;P2;SDS_P1;SDS_P2;PMS_P1;PMS_P2;Temp;Humidity;BMP_temperature;BMP_pressure;BME280_temperature;BME280_humidity;BME280_pressure;Samples;Min_cycle;Max_cycle;Signal;HPM_P1;HPM_P2
2023/03/23 00:01:36;;;;;;;7.63;4.80;;;6.80;97.40;;;5.02;79.87;100012.09;10229977;28;96803;-87
2023/03/23 00:06:39;;;;;;;10.03;5.27;;;6.70;97.80;;;4.92;80.29;100003.34;10253871;28;96620;-86
2023/03/23 00:11:42;;;;;;;8.97;5.67;;;6.60;97.70;;;4.83;80.45;100007.66;10236062;28;96909;-85
2023/03/23 00:16:44;;;;;;;7.57;4.63;;;6.60;97.90;;;4.73;80.45;99997.09;10258417;28;98938;-85
2023/03/23 00:21:46;;;;;;;9.57;5.97;;;6.50;98.10;;;4.70;81.01;100002.63;10247716;28;96469;-85
2023/03/23 00:26:51;;;;;;;10.33;5.90;;;6.50;98.50;;;4.68;81.41;99999.31;10208329;28;96472;-84
2023/03/23 00:31:53;;;;;;;10.47;6.47;;;6.40;98.90;;;4.66;81.96;99995.97;10233792;28;98241;-85
2023/03/23 00:36:58;;;;;;;14.73;7.27;;;6.40;99.10;;;4.66;82.36;100000.41;10220447;28;98079;-85
2023/03/23 00:42:03;;;;;;;15.37;9.77;;;6.40;99.60;;;4.65;82.95;100007.47;10291175;28;97401;-85
2023/03/23 00:47:06;;;;;;;16.30;9.47;;;6.30;99.80;;;4.64;83.43;99995.28;10255851;28;96560;-85
2023/03/23 00:52:10;;;;;;;16.53;10.27;;;6.30;99.90;;;4.64;83.68;99994.44;10262108;28;96933;-85
2023/03/23 00:57:12;;;;;;;17.47;10.63;;;6.30;99.90;;;4.56;83.70;99990.69;10236416;28;98359;-86
2023/03/23 01:02:14;;;;;;;18.20;12.40;;;6.20;99.90;;;4.49;83.69;99981.66;10252704;28;96608;-88
2023/03/23 01:07:17;;;;;;;17.57;10.60;;;6.20;99.90;;;4.47;83.81;99978.31;10237992;28;96465;-86
2023/03/23 01:12:19;;;;;;;19.57;11.37;;;6.20;99.90;;;4.41;84.04;99968.34;10213136;28;98648;-86
2023/03/23 01:17:21;;;;;;;20.80;11.90;;;6.10;99.90;;;4.32;84.22;99974.41;10232260;28;96623;-86
2023/03/23 01:22:23;;;;;;;17.47;10.97;;;6.10;99.90;;;4.25;84.21;99974.09;10271799;28;96479;-86
2023/03/23 01:27:25;;;;;;;17.93;11.93;;;6.00;99.90;;;4.19;84.17;99973.78;10219207;28;96625;-86
2023/03/23 01:32:27;;;;;;;22.50;11.77;;;5.90;99.90;;;4.09;84.72;99965.88;10250275;28;98300;-87
2023/03/23 01:37:31;;;;;;;23.70;14.67;;;5.80;99.90;;;4.05;85.16;99964.47;10244321;28;96798;-89
2023/03/23 01:42:36;;;;;;;19.13;11.67;;;5.80;99.90;;;4.02;85.23;99968.22;10288405;28;96771;-89
2023/03/23 01:47:38;;;;;;;18.50;10.70;;;5.80;99.90;;;3.99;85.71;99960.56;10261692;28;97303;-88
2023/03/23 01:52:41;;;;;;;17.20;9.67;;;5.70;99.90;;;3.96;85.87;99966.09;10270827;28;96541;-88
2023/03/23 01:57:43;;;;;;;13.93;8.23;;;5.70;99.90;;;3.95;86.26;99959.16;10249136;28;98195;-87
2023/03/23 02:02:49;;;;;;;11.50;6.70;;;5.70;99.90;;;3.95;86.28;99955.69;10231539;28;96576;-88
2023/03/23 02:07:52;;;;;;;10.73;6.00;;;5.60;99.90;;;3.93;86.48;99955.84;10238454;28;96718;-88
2023/03/23 02:12:55;;;;;;;10.73;5.90;;;5.70;99.90;;;3.91;86.74;99957.78;10216484;28;96942;-88
2023/03/23 02:18:47;;;;;;;9.63;5.10;;;5.70;99.90;;;3.92;86.10;99961.22;10233266;28;96503;-88
2023/03/23 02:24:16;;;;;;;7.33;4.87;;;5.70;99.90;;;3.91;86.41;99968.28;10253717;28;98332;-88
2023/03/23 02:29:30;;;;;;;7.70;4.13;;;5.60;99.90;;;3.89;86.62;99966.72;10237908;28;97544;-88
2023/03/23 02:34:53;;;;;;;7.47;4.37;;;5.60;99.90;;;3.86;86.60;99969.63;10226011;28;98576;-86
2023/03/23 02:40:25;;;;;;;8.90;4.90;;;5.60;99.90;;;3.85;86.56;99978.50;10209790;28;96534;-86
2023/03/23 02:45:30;;;;;;;10.13;4.82;;;5.60;99.90;;;3.85;86.60;99979.31;10228458;28;96753;-87
2023/03/23 02:50:35;;;;;;;11.87;7.80;;;5.60;99.90;;;3.85;86.68;99979.31;10242379;28;96634;-88
2023/03/23 02:55:41;;;;;;;11.60;8.03;;;5.60;99.90;;;3.89;86.62;99972.81;10287018;28;96646;-88
2023/03/23 03:00:44;;;;;;;15.07;8.93;;;5.60;99.90;;;3.89;86.69;99974.63;10241660;28;96581;-87
2023/03/23 03:06:08;;;;;;;9.37;6.33;;;5.60;99.90;;;3.86;86.31;99978.34;10235055;28;96486;-87
2023/03/23 03:11:13;;;;;;;13.13;8.90;;;5.60;99.90;;;3.82;86.72;99976.94;10258097;28;96615;-86
2023/03/23 03:16:21;;;;;;;13.13;6.27;;;5.60;99.90;;;3.80;86.46;99978.03;10258621;28;96556;-87
2023/03/23 03:21:28;;;;;;;8.67;6.07;;;5.60;99.90;;;3.76;86.46;99977.47;10270306;28;96805;-86
2023/03/23 03:26:34;;;;;;;10.37;6.70;;;5.50;99.90;;;3.71;86.69;99987.53;10244321;28;97488;-87
2023/03/23 03:31:45;;;;;;;17.90;9.30;;;5.40;99.90;;;3.65;86.69;99990.66;10225946;28;96544;-87
2023/03/23 03:36:50;;;;;;;12.00;7.30;;;5.40;99.90;;;3.60;86.87;99990.22;10244662;28;96802;-87
2023/03/23 03:41:52;;;;;;;12.67;8.23;;;5.40;99.90;;;3.53;86.89;99986.44;10213719;28;96915;-88
2023/03/23 03:46:54;;;;;;;17.90;9.70;;;5.30;99.90;;;3.48;87.22;99992.09;10203570;28;98278;-89
2023/03/23 03:51:56;;;;;;;19.50;10.40;;;5.20;99.90;;;3.43;87.37;99995.09;10242066;28;96530;-89
2023/03/23 03:56:57;;;;;;;19.30;9.77;;;5.20;99.90;;;3.36;87.29;99995.72;10258675;28;97949;-89
2023/03/23 04:01:59;;;;;;;21.17;13.63;;;5.20;99.90;;;3.33;87.70;100002.06;10202884;28;96591;-88
2023/03/23 04:07:02;;;;;;;24.23;14.07;;;5.10;99.90;;;3.30;87.84;100010.22;10246288;28;96581;-89
2023/03/23 04:12:04;;;;;;;21.17;15.50;;;5.10;99.90;;;3.28;88.18;100012.09;10251373;28;96675;-88
2023/03/23 04:17:09;;;;;;;26.13;14.17;;;5.00;99.90;;;3.26;88.27;100007.97;10269942;28;98705;-87
2023/03/23 04:22:11;;;;;;;18.50;11.10;;;5.10;99.90;;;3.26;88.54;100006.16;10251241;28;96484;-91
2023/03/23 04:27:14;;;;;;;18.73;12.77;;;5.00;99.90;;;3.29;88.75;100008.53;10290356;28;98455;-88
2023/03/23 04:32:17;;;;;;;19.40;10.57;;;5.10;99.90;;;3.32;89.19;100013.53;10259668;28;99363;-86
2023/03/23 04:37:19;;;;;;;18.23;11.07;;;5.10;99.90;;;3.33;88.98;100012.56;10231130;28;97480;-89
2023/03/23 04:42:21;;;;;;;20.97;10.60;;;5.10;99.90;;;3.35;89.24;100007.19;10270040;28;96951;-90
2023/03/23 04:47:29;;;;;;;16.10;9.47;;;5.10;99.90;;;3.35;89.44;100012.44;10265107;28;97398;-88
2023/03/23 04:52:31;;;;;;;16.80;10.00;;;5.10;99.90;;;3.36;89.67;100014.09;10213458;28;97054;-88
2023/03/23 04:57:34;;;;;;;21.50;10.33;;;5.10;99.90;;;3.39;89.51;100004.19;10228261;28;97757;-88
2023/03/23 05:02:36;;;;;;;14.13;8.60;;;5.10;99.90;;;3.43;89.93;100007.41;10224293;28;96981;-82
2023/03/23 05:07:39;;;;;;;19.63;9.20;;;5.10;99.90;;;3.48;89.89;100013.94;10243561;28;96579;-87
2023/03/23 05:12:42;;;;;;;22.07;12.20;;;5.20;99.90;;;3.59;89.87;100009.56;10241427;28;96650;-84
2023/03/23 05:17:44;;;;;;;22.03;10.07;;;5.30;99.90;;;3.70;90.00;100012.13;10255165;28;96773;-84
2023/03/23 05:22:49;;;;;;;12.40;7.87;;;5.40;99.90;;;3.85;90.26;100004.78;10241537;28;96759;-85
2023/03/23 05:27:52;;;;;;;21.40;10.43;;;5.50;99.90;;;3.99;90.14;100004.44;10245967;28;97376;-85
2023/03/23 05:32:54;;;;;;;29.00;13.50;;;5.60;99.90;;;4.15;90.16;100002.16;10211567;28;96709;-87
2023/03/23 05:37:56;;;;;;;25.27;15.23;;;5.70;99.90;;;4.31;90.17;100001.66;10253682;28;96429;-87
2023/03/23 05:42:58;;;;;;;18.80;10.17;;;5.80;99.90;;;4.47;89.88;100007.28;10275671;28;97358;-85
2023/03/23 05:48:01;;;;;;;21.37;11.57;;;6.00;99.90;;;4.68;89.84;100008.97;10220561;28;96570;-87
2023/03/23 05:53:04;;;;;;;17.93;8.20;;;6.20;99.90;;;4.87;89.72;100003.78;10196365;28;96469;-85
2023/03/23 05:58:05;;;;;;;16.17;7.97;;;6.40;99.90;;;5.12;89.44;100007.69;10164834;28;96569;-85
2023/03/23 06:03:08;;;;;;;11.97;6.17;;;6.60;99.90;;;5.40;88.82;100013.09;10241735;28;96445;-86
2023/03/23 06:08:11;;;;;;;18.93;9.70;;;6.80;99.90;;;5.72;87.51;100018.09;10261209;28;96453;-86
2023/03/23 06:13:13;;;;;;;14.57;8.10;;;7.10;99.90;;;6.00;86.74;100008.47;10269911;28;97051;-86
2023/03/23 06:18:15;;;;;;;18.87;9.27;;;7.40;99.90;;;6.30;85.66;100002.13;10251916;28;96588;-86
2023/03/23 06:23:17;;;;;;;13.37;9.63;;;7.60;99.90;;;6.56;84.82;99999.66;10251412;28;96683;-86
2023/03/23 06:28:19;;;;;;;18.83;13.10;;;7.90;99.90;;;6.79;82.86;99994.78;10251177;28;96995;-86
2023/03/23 06:33:21;;;;;;;15.47;10.80;;;8.20;99.90;;;7.04;82.44;99996.72;10235669;28;96542;-86
2023/03/23 06:38:23;;;;;;;17.90;11.83;;;8.40;99.90;;;7.28;80.51;99997.94;10221145;28;97227;-86
2023/03/23 06:43:25;;;;;;;22.13;14.73;;;8.60;99.90;;;7.56;79.11;99994.22;10233871;28;96625;-86
2023/03/23 06:48:27;;;;;;;19.73;13.03;;;8.90;99.90;;;7.84;78.04;100002.00;10256117;28;96549;-85
2023/03/23 06:53:30;;;;;;;23.87;13.20;;;9.20;99.90;;;8.14;77.08;100004.16;10266753;28;96510;-86
2023/03/23 06:58:33;;;;;;;23.30;13.47;;;9.50;99.90;;;8.47;75.48;100007.84;10275382;28;98133;-83
2023/03/23 07:03:36;;;;;;;22.73;13.27;;;9.70;99.90;;;8.81;74.66;99996.38;10256871;28;96579;-85
2023/03/23 07:08:38;;;;;;;30.33;15.70;;;10.10;99.90;;;9.11;72.83;100003.72;10252142;28;98183;-85
2023/03/23 07:13:40;;;;;;;30.03;14.37;;;10.40;99.90;;;9.38;70.94;100009.75;10271239;28;96664;-85
2023/03/23 07:18:42;;;;;;;26.00;15.07;;;10.70;99.40;;;9.68;70.42;100012.75;10255718;28;96544;-85
2023/03/23 07:23:46;;;;;;;31.50;15.57;;;10.90;98.80;;;9.97;69.70;100015.69;10258397;28;96426;-84
2023/03/23 07:28:54;;;;;;;22.47;14.53;;;11.20;98.40;;;10.26;68.93;100017.00;10254330;28;97962;-85
2023/03/23 07:33:56;;;;;;;18.00;13.37;;;11.50;98.00;;;10.53;67.61;100015.75;10274094;28;96571;-85
2023/03/23 07:38:58;;;;;;;23.67;14.43;;;11.80;97.30;;;10.79;66.32;100018.13;10268841;28;97365;-85
2023/03/23 07:44:00;;;;;;;36.57;23.60;;;12.00;96.70;;;11.07;65.57;100027.28;10249856;28;96559;-85
2023/03/23 07:49:05;;;;;;;40.93;24.27;;;12.30;96.20;;;11.33;64.80;100021.63;10257385;28;96768;-84
2023/03/23 07:54:07;;;;;;;23.73;15.17;;;12.50;95.50;;;11.61;63.84;100016.59;10277430;28;96450;-84
2023/03/23 07:59:09;;;;;;;26.37;17.13;;;12.90;95.10;;;11.96;63.37;100012.47;10185610;28;96833;-85
2023/03/23 08:04:13;;;;;;;36.23;22.20;;;13.20;94.10;;;12.78;62.28;100009.72;10285006;28;96644;-84
2023/03/23 08:09:15;;;;;;;24.17;15.43;;;13.70;94.00;;;14.09;59.28;100013.88;10195522;28;96509;-85
2023/03/23 08:14:17;;;;;;;28.23;16.35;;;14.30;93.30;;;14.72;56.04;100016.53;10285014;28;96702;-85
2023/03/23 08:19:19;;;;;;;20.25;14.10;;;14.90;92.30;;;14.95;53.78;100018.88;10256686;28;96539;-86
2023/03/23 08:24:21;;;;;;;72.95;42.13;;;15.60;91.00;;;15.37;50.98;100011.56;10266694;28;98682;-86
2023/03/23 08:29:23;;;;;;;25.35;16.92;;;16.10;88.80;;;15.62;48.81;100014.47;10219749;28;96680;-86
2023/03/23 08:34:25;;;;;;;22.20;14.35;;;16.60;85.70;;;15.84;50.27;100002.56;10217880;28;96560;-86
2023/03/23 08:39:27;;;;;;;19.92;12.98;;;17.00;81.90;;;16.42;49.40;100009.91;10281685;28;96548;-86
2023/03/23 08:44:29;;;;;;;18.30;12.75;;;17.50;80.00;;;17.11;46.78;99995.81;10223921;28;96918;-86
2023/03/23 08:49:34;;;;;;;16.95;12.18;;;18.10;77.80;;;17.65;44.19;99992.56;10247755;28;96534;-86
2023/03/23 08:54:37;;;;;;;20.63;11.68;;;18.60;74.20;;;18.05;44.70;99994.94;10220139;28;96592;-87
2023/03/23 08:59:42;;;;;;;16.60;10.40;;;19.20;72.60;;;18.40;42.28;99992.47;10257128;28;96775;-86
2023/03/23 09:04:44;;;;;;;15.52;10.60;;;19.50;69.50;;;18.69;41.96;99985.56;10249953;28;97509;-86
2023/03/23 09:09:46;;;;;;;17.45;11.48;;;19.70;66.90;;;19.23;41.79;99981.09;10261598;28;96571;-86
2023/03/23 09:14:48;;;;;;;14.95;10.55;;;20.10;65.50;;;19.98;38.72;99967.06;10244064;28;97340;-86
2023/03/23 09:19:50;;;;;;;12.30;8.88;;;20.60;63.30;;;20.30;37.99;99962.09;10278365;28;96512;-87
2023/03/23 09:24:52;;;;;;;14.95;9.68;;;21.10;61.60;;;20.96;36.91;99961.81;10255814;28;96540;-87
2023/03/23 09:29:55;;;;;;;11.63;8.75;;;21.70;59.70;;;21.40;35.06;99954.78;10238541;28;96472;-87
2023/03/23 09:34:57;;;;;;;12.95;9.05;;;22.30;57.70;;;22.16;34.71;99950.56;10261799;28;96606;-88
2023/03/23 09:39:59;;;;;;;13.20;7.38;;;22.90;56.70;;;22.81;33.85;99961.66;10275134;28;96942;-87
2023/03/23 09:45:12;;;;;;;11.02;7.45;;;23.50;55.40;;;23.12;32.14;99952.81;10273955;28;96617;-87
2023/03/23 09:50:21;;;;;;;12.07;7.32;;;23.90;53.00;;;23.40;32.29;99948.19;10259234;28;96599;-87
2023/03/23 09:55:24;;;;;;;10.30;7.30;;;24.30;52.60;;;23.61;31.48;99939.13;10248120;28;96621;-87
2023/03/23 10:00:41;;;;;;;14.77;7.13;;;24.60;51.20;;;23.42;30.42;99921.63;10273490;28;97352;-87
2023/03/23 10:05:50;;;;;;;12.68;7.10;;;24.50;49.60;;;22.98;30.48;99924.50;10260869;28;97239;-87
2023/03/23 10:11:14;;;;;;;9.55;6.72;;;24.20;49.00;;;22.46;31.42;99927.69;10244520;28;96756;-87
2023/03/23 10:16:27;;;;;;;10.52;6.05;;;23.70;49.30;;;22.11;31.86;99909.91;10246816;28;96471;-87
2023/03/23 10:21:32;;;;;;;8.50;5.00;;;23.30;49.70;;;21.85;32.02;99899.78;10265768;28;98201;-88
2023/03/23 10:26:47;;;;;;;6.43;4.75;;;23.10;49.70;;;21.36;32.49;99913.13;10241068;28;96783;-87
2023/03/23 10:32:13;;;;;;;8.93;5.38;;;22.70;49.50;;;20.75;33.14;99912.00;10284186;28;96754;-88
2023/03/23 10:37:49;;;;;;;7.07;5.03;;;22.20;49.30;;;20.15;33.90;99902.44;10219312;28;96569;-86
2023/03/23 10:42:54;;;;;;;9.13;5.55;;;21.60;50.60;;;19.96;34.93;99895.53;10206019;28;97170;-87
2023/03/23 10:48:07;;;;;;;7.55;5.45;;;21.30;51.30;;;19.98;35.16;99907.72;10242342;28;96448;-88
2023/03/23 10:53:43;;;;;;;7.85;5.05;;;21.30;51.70;;;20.22;35.41;99910.41;10269078;28;96526;-86
2023/03/23 10:58:45;;;;;;;9.68;5.22;;;21.40;52.10;;;20.40;34.85;99904.00;10243754;28;96717;-88
2023/03/23 11:03:49;;;;;;;7.68;4.47;;;21.60;51.80;;;20.42;35.41;99897.31;10266977;28;97650;-87
2023/03/23 11:08:55;;;;;;;7.90;5.07;;;21.70;51.80;;;20.38;35.08;99893.44;10259268;28;97575;-87
2023/03/23 11:14:14;;;;;;;9.80;4.60;;;21.70;51.70;;;20.36;35.74;99887.47;10211156;28;96841;-87
2023/03/23 11:19:32;;;;;;;8.23;5.00;;;21.60;51.90;;;20.44;35.18;99889.78;10243196;28;96515;-87
2023/03/23 11:24:47;;;;;;;6.25;4.25;;;21.70;52.00;;;20.39;35.39;99889.69;10235715;28;96523;-88
2023/03/23 11:29:55;;;;;;;6.53;4.38;;;21.70;51.80;;;20.27;35.69;99884.34;10282805;28;96349;-88
2023/03/23 11:35:01;;;;;;;10.20;4.70;;;21.60;52.10;;;20.10;35.75;99872.66;10264838;28;96914;-87
2023/03/23 11:40:09;;;;;;;7.35;4.50;;;21.40;52.20;;;20.07;36.31;99875.81;10201321;28;96602;-87
2023/03/23 11:45:40;;;;;;;5.43;4.30;;;21.30;52.60;;;20.78;36.15;99873.72;10257970;28;96551;-86
2023/03/23 11:51:09;;;;;;;8.82;4.70;;;22.00;53.10;;;21.89;34.45;99853.06;10229704;28;96565;-88
2023/03/23 11:56:20;;;;;;;8.30;4.63;;;23.10;51.70;;;22.83;33.52;99840.31;10251274;28;96657;-87
2023/03/23 12:01:51;;;;;;;6.70;4.22;;;24.10;51.00;;;23.68;32.13;99830.44;10271842;28;96605;-86
2023/03/23 12:07:47;;;;;;;7.90;3.50;;;25.20;49.70;;;24.91;29.80;99815.34;10258919;28;96458;-88
2023/03/23 12:13:37;;;;;;;5.90;2.75;;;26.40;47.50;;;25.29;27.81;99803.09;10267572;28;96676;-88
2023/03/23 12:18:57;;;;;;;2.97;2.20;;;27.00;44.30;;;25.17;27.11;99792.50;10240546;28;96992;-88
2023/03/23 12:24:13;;;;;;;2.85;1.90;;;27.10;44.20;;;25.57;26.64;99790.81;10247224;28;96607;-89
2023/03/23 12:29:45;;;;;;;2.67;1.70;;;27.30;43.40;;;25.53;26.55;99789.72;10216965;28;96661;-89
2023/03/23 12:35:28;;;;;;;4.55;1.70;;;27.50;43.00;;;25.83;25.29;99784.22;10250981;28;96744;-90
2023/03/23 12:41:12;;;;;;;3.25;1.70;;;27.70;42.00;;;25.46;26.28;99781.03;10222961;28;96664;-88
2023/03/23 12:46:23;;;;;;;4.00;1.92;;;27.40;41.70;;;25.38;25.76;99773.47;10279248;28;98556;-88
2023/03/23 12:51:40;;;;;;;2.75;1.90;;;27.30;41.60;;;24.98;26.30;99765.06;10273517;28;97130;-90
2023/03/23 12:57:14;;;;;;;3.65;1.80;;;26.90;41.70;;;24.63;27.25;99760.44;10237573;28;96629;-88
2023/03/23 13:02:30;;;;;;;3.90;2.03;;;26.40;42.50;;;24.46;27.59;99762.59;10246414;28;96664;-89
2023/03/23 13:07:46;;;;;;;5.03;1.67;;;26.20;42.70;;;24.13;27.88;99761.16;10250745;28;97500;-89
2023/03/23 13:12:50;;;;;;;2.75;1.58;;;25.90;42.70;;;23.97;28.20;99771.94;10258264;28;96571;-90
2023/03/23 13:18:07;;;;;;;3.40;2.03;;;25.70;43.10;;;23.88;28.42;99760.00;10261371;28;96558;-90
2023/03/23 13:23:33;;;;;;;3.13;1.55;;;25.60;43.40;;;23.64;28.53;99756.91;10259751;28;96587;-89
2023/03/23 13:28:53;;;;;;;3.30;1.70;;;25.30;43.50;;;23.30;29.64;99758.31;10265207;28;96457;-89
2023/03/23 13:33:59;;;;;;;;;;;25.00;44.40;;;23.29;29.41;99748.56;10274989;28;97739;-88
2023/03/23 13:39:07;;;;;;;4.97;1.80;;;25.00;44.30;;;23.17;29.64;99746.88;10271261;28;96631;-88
2023/03/23 13:44:21;;;;;;;14.10;9.18;;;24.90;44.40;;;23.09;29.46;99731.09;10241397;28;96561;-87
2023/03/23 13:49:25;;;;;;;8.00;2.50;;;24.90;44.00;;;23.05;29.47;99724.56;10256527;28;97688;-87
2023/03/23 13:54:43;;;;;;;3.97;1.90;;;24.80;44.20;;;23.14;29.77;99722.97;10275562;28;96510;-88
2023/03/23 13:59:56;;;;;;;2.58;1.48;;;24.90;44.30;;;23.26;29.54;99725.50;10251428;28;96477;-88
2023/03/23 14:05:23;;;;;;;4.10;1.58;;;25.00;44.30;;;23.21;29.04;99712.75;10251821;28;98168;-88
2023/03/23 14:10:36;;;;;;;2.58;1.65;;;25.00;43.90;;;23.19;29.29;99720.31;10260635;28;96900;-89
2023/03/23 14:15:45;;;;;;;5.05;1.85;;;25.00;44.00;;;22.87;29.61;99716.88;10244603;28;96590;-88
2023/03/23 14:20:48;;;;;;;3.83;1.65;;;24.70;44.00;;;22.65;30.07;99717.75;10272696;28;96548;-86
2023/03/23 14:26:15;;;;;;;3.03;1.65;;;24.50;44.50;;;22.65;30.25;99712.31;10229516;28;96600;-87
2023/03/23 14:31:27;;;;;;;2.75;1.83;;;24.50;44.70;;;22.87;30.21;99706.03;10250582;28;96604;-87
2023/03/23 14:36:31;;;;;;;2.72;2.08;;;24.70;44.50;;;22.96;29.96;99707.97;10259870;28;96634;-87
2023/03/23 14:41:36;;;;;;;2.25;1.70;;;24.80;44.30;;;23.18;29.80;99715.97;10198424;28;97941;-86
2023/03/23 14:46:38;;;;;;;3.28;2.20;;;25.00;44.20;;;22.99;29.67;99713.97;10207133;28;98302;-89
2023/03/23 14:51:52;;;;;;;7.30;2.40;;;24.80;44.00;;;22.80;29.92;99710.81;10217041;28;97463;-90
2023/03/23 14:56:55;;;;;;;4.70;2.20;;;24.60;44.30;;;22.33;30.30;99719.63;10204654;28;98442;-92
2023/03/23 15:02:01;;;;;;;3.33;1.80;;;24.10;44.60;;;21.96;30.89;99720.31;10228151;28;98606;-94
2023/03/23 15:07:05;;;;;;;3.70;1.88;;;23.60;45.30;;;21.62;31.64;99719.66;10223212;28;96947;-90
2023/03/23 15:12:28;;;;;;;3.75;1.65;;;23.20;46.00;;;21.30;32.03;99719.53;10227604;28;98678;-92
2023/03/23 15:17:35;;;;;;;6.32;1.90;;;22.80;46.50;;;21.00;32.77;99726.09;10230309;28;96530;-85
2023/03/23 15:22:47;;;;;;;3.92;2.42;;;22.40;47.10;;;20.90;33.21;99731.34;10229862;28;97567;-90
2023/03/23 15:27:57;;;;;;;4.40;2.60;;;22.30;47.70;;;21.04;33.66;99716.41;10221790;28;96530;-90
2023/03/23 15:33:10;;;;;;;4.05;1.90;;;22.50;48.00;;;21.49;32.83;99712.75;10249827;28;96538;-91
2023/03/23 15:38:26;;;;;;;6.75;2.45;;;23.10;47.30;;;21.95;32.02;99709.72;10235621;28;97303;-88
2023/03/23 15:43:35;;;;;;;5.35;3.50;;;23.70;46.80;;;22.31;31.94;99708.22;10247629;28;98671;-94
2023/03/23 15:48:54;;;;;;;6.00;3.25;;;24.10;46.40;;;22.29;31.19;99707.69;10253336;28;98051;-86
2023/03/23 15:53:57;;;;;;;6.03;4.10;;;24.20;45.50;;;22.04;31.71;99706.34;10223361;28;98510;-86
2023/03/23 15:59:00;;;;;;;10.85;5.72;;;23.80;45.70;;;21.75;31.96;99710.34;10240682;28;96790;-86
2023/03/23 16:04:18;;;;;;;7.15;4.05;;;23.50;45.90;;;21.39;32.03;99715.31;10233822;28;98667;-85
2023/03/23 16:09:21;;;;;;;5.95;2.90;;;23.00;46.30;;;20.83;32.97;99719.88;10197841;28;97785;-86
2023/03/23 16:14:24;;;;;;;30.33;19.45;;;22.40;47.00;;;20.31;33.84;99739.78;10248771;28;97436;-86
2023/03/23 16:19:27;;;;;;;8.10;5.13;;;21.80;47.80;;;19.82;34.40;99752.06;10243417;28;98355;-85
2023/03/23 16:24:30;;;;;;;8.38;4.32;;;21.30;48.60;;;19.45;35.20;99751.53;10238905;28;97065;-85
2023/03/23 16:29:34;;;;;;;7.68;4.32;;;20.80;49.20;;;19.12;35.97;99749.44;10215022;28;97572;-86
2023/03/23 16:34:42;;;;;;;10.10;4.78;;;20.50;50.00;;;18.80;36.83;99749.78;10242125;28;97581;-86
2023/03/23 16:39:45;;;;;;;10.57;5.55;;;20.10;50.60;;;18.46;37.52;99749.44;10260439;28;99207;-85
2023/03/23 16:44:49;;;;;;;16.67;5.43;;;19.80;51.20;;;18.14;37.99;99753.44;10231597;28;97879;-84
2023/03/23 16:49:52;;;;;;;8.65;4.43;;;19.50;51.80;;;17.81;39.02;99762.78;10243524;28;97375;-84
2023/03/23 16:54:55;;;;;;;7.18;3.65;;;19.20;52.20;;;17.50;39.43;99770.94;10256128;28;96611;-85
2023/03/23 16:59:59;;;;;;;8.10;4.00;;;18.90;53.00;;;17.22;39.99;99766.09;10251710;28;98464;-84
2023/03/23 17:05:05;;;;;;;8.93;3.35;;;18.60;53.50;;;16.93;40.78;99770.25;10246707;28;96554;-84
2023/03/23 17:10:10;;;;;;;12.32;5.90;;;18.30;54.00;;;16.65;41.49;99782.19;10232581;28;97370;-86
2023/03/23 17:15:15;;;;;;;18.98;9.15;;;18.00;54.50;;;16.31;42.16;99776.25;10258761;28;97463;-90
2023/03/23 17:20:18;;;;;;;32.78;16.58;;;17.70;54.90;;;15.99;42.83;99774.56;10227637;28;98700;-85
2023/03/23 17:25:22;;;;;;;26.10;13.70;;;17.40;55.50;;;15.70;43.40;99789.28;10280527;28;96957;-86
2023/03/23 17:30:24;;;;;;;23.23;12.35;;;17.10;55.80;;;15.39;44.29;99795.31;10272812;28;96571;-87
2023/03/23 17:35:27;;;;;;;16.83;7.72;;;16.80;56.40;;;15.09;44.97;99805.66;10250716;28;96571;-85
2023/03/23 17:40:30;;;;;;;18.08;7.18;;;16.50;56.90;;;14.76;46.05;99811.00;10272196;28;96730;-85
2023/03/23 17:45:33;;;;;;;12.90;6.40;;;16.30;57.90;;;14.43;47.17;99812.53;10257940;28;96782;-86
2023/03/23 17:50:39;;;;;;;11.77;6.50;;;15.90;58.60;;;14.13;47.79;99812.06;10275879;28;96888;-84
2023/03/23 17:55:42;;;;;;;10.13;6.17;;;15.60;59.20;;;13.93;48.68;99813.84;10271929;28;96585;-86
2023/03/23 18:00:45;;;;;;;12.73;8.07;;;15.40;60.00;;;13.77;49.25;99814.16;10276068;28;96482;-85
2023/03/23 18:05:49;;;;;;;38.92;18.65;;;15.30;60.50;;;13.64;50.29;99829.09;10241600;28;96926;-86
2023/03/23 18:10:55;;;;;;;44.83;23.52;;;15.10;61.30;;;13.52;50.89;99832.50;10264101;28;96598;-84
2023/03/23 18:15:59;;;;;;;34.20;15.70;;;15.00;61.90;;;13.39;51.65;99838.59;10272069;28;98577;-84
2023/03/23 18:21:06;;;;;;;18.87;9.33;;;14.80;62.70;;;13.20;51.99;99836.56;10232534;28;98310;-89
2023/03/23 18:26:13;;;;;;;26.10;9.27;;;14.60;63.20;;;13.01;53.05;99843.38;10264807;28;96665;-88
2023/03/23 18:31:18;;;;;;;28.03;10.83;;;14.50;64.10;;;12.79;53.74;99842.56;10260740;28;96442;-88
2023/03/23 18:36:26;;;;;;;42.53;16.77;;;14.20;64.70;;;12.59;54.27;99848.53;10257726;28;96845;-87
2023/03/23 18:41:29;;;;;;;36.00;14.13;;;14.10;65.30;;;12.37;54.57;99846.03;10276084;28;96396;-88
2023/03/23 18:46:36;;;;;;;28.50;12.43;;;13.80;65.60;;;12.22;55.73;99854.03;10215343;28;96709;-88
2023/03/23 18:51:39;;;;;;;28.67;13.20;;;13.70;66.30;;;12.07;56.74;99862.06;10234255;28;96532;-88
2023/03/23 18:56:42;;;;;;;23.20;9.20;;;13.50;67.10;;;11.92;56.61;99847.94;10291495;28;96477;-87
2023/03/23 19:01:45;;;;;;;19.47;9.77;;;13.40;67.20;;;11.80;56.93;99852.88;10270909;28;96589;-88
2023/03/23 19:06:49;;;;;;;24.70;12.80;;;13.30;67.60;;;11.63;57.97;99851.38;10247522;28;96636;-88
2023/03/23 19:11:52;;;;;;;20.03;10.67;;;13.10;68.10;;;11.48;58.33;99852.22;10194974;28;96491;-88
2023/03/23 19:16:56;;;;;;;27.20;10.80;;;13.00;68.50;;;11.33;58.41;99851.34;10218637;28;96593;-90
2023/03/23 19:21:59;;;;;;;21.37;10.60;;;12.80;68.90;;;11.21;59.47;99848.31;10248349;28;97701;-90
2023/03/23 19:27:02;;;;;;;22.37;11.07;;;12.70;69.60;;;11.10;59.93;99847.94;10236967;28;96962;-90
2023/03/23 19:32:06;;;;;;;20.67;11.17;;;12.60;69.90;;;11.01;60.79;99854.31;10272710;28;96878;-90
2023/03/23 19:37:09;;;;;;;21.27;12.40;;;12.50;70.70;;;10.92;61.99;99867.69;10253511;28;98397;-89
2023/03/23 19:42:15;;;;;;;21.73;11.90;;;12.40;71.50;;;10.87;61.71;99871.88;10253462;28;96650;-89
2023/03/23 19:47:18;;;;;;;29.80;14.03;;;12.30;71.90;;;10.78;61.78;99871.09;10250123;28;96675;-90
2023/03/23 19:52:22;;;;;;;19.93;11.07;;;12.20;72.20;;;10.68;61.57;99870.53;10216802;28;96924;-91
2023/03/23 19:57:25;;;;;;;22.03;11.17;;;12.10;72.20;;;10.57;62.17;99881.56;10211692;28;96483;-90
2023/03/23 20:02:28;;;;;;;21.20;10.60;;;12.00;72.60;;;10.45;63.03;99884.59;10237437;28;97490;-90
2023/03/23 20:07:31;;;;;;;16.37;8.30;;;12.00;73.30;;;10.34;63.70;99887.66;10232269;28;96706;-90
2023/03/23 20:12:34;;;;;;;17.00;8.80;;;11.80;74.00;;;10.26;63.84;99885.03;10231468;28;97391;-90
2023/03/23 20:17:38;;;;;;;20.30;10.53;;;11.70;74.10;;;10.14;64.10;99883.75;10249153;28;98460;-89
2023/03/23 20:22:41;;;;;;;17.40;8.87;;;11.60;74.50;;;10.00;64.71;99892.41;10258233;28;96530;-89
2023/03/23 20:27:45;;;;;;;19.33;9.60;;;11.50;74.90;;;9.91;65.10;99897.75;10225263;28;96888;-86
2023/03/23 20:32:50;;;;;;;10.33;6.90;;;11.40;75.80;;;9.78;65.62;99889.50;10251530;28;98044;-87
2023/03/23 20:37:53;;;;;;;13.63;7.87;;;11.30;75.90;;;9.70;66.00;99900.13;10251179;28;97703;-88
2023/03/23 20:42:56;;;;;;;15.43;8.03;;;11.20;76.50;;;9.64;66.19;99898.16;10262778;28;96513;-88
2023/03/23 20:48:00;;;;;;;16.43;7.40;;;11.10;76.80;;;9.52;66.33;99892.38;10282985;28;96487;-88
2023/03/23 20:53:04;;;;;;;8.47;6.17;;;11.00;77.10;;;9.43;67.15;99900.53;10250604;28;96569;-87
2023/03/23 20:58:06;;;;;;;10.67;6.83;;;11.00;78.00;;;9.36;67.52;99900.38;10253740;28;96636;-86
2023/03/23 21:03:14;;;;;;;13.27;7.30;;;10.90;78.40;;;9.32;67.07;99891.91;10253393;28;98806;-87
2023/03/23 21:08:18;;;;;;;9.90;6.97;;;10.80;78.60;;;9.29;67.66;99880.78;10231568;28;98340;-86
2023/03/23 21:13:21;;;;;;;11.53;6.90;;;10.80;79.00;;;9.20;67.78;99879.16;10219546;28;96996;-87